createdAt,value
2024-04-25T00:01:33.986Z,7.80
2024-04-25T00:07:12.755Z,8.70
2024-04-25T00:13:33.539Z,8.50
2024-04-25T00:19:12.446Z,7.70
2024-04-25T00:24:44.028Z,8.10
2024-04-25T00:30:13.209Z,8.70
2024-04-25T00:35:15.790Z,11.70
2024-04-25T00:41:25.576Z,11.10
2024-04-25T00:46:46.344Z,11.90
2024-04-25T00:58:16.784Z,10.60
2024-04-25T01:03:22.384Z,10.00
2024-04-25T01:09:07.501Z,10.70
2024-04-25T01:15:20.608Z,9.60
2024-04-25T01:20:30.010Z,10.20
2024-04-25T01:26:11.726Z,9.30
2024-04-25T01:31:57.158Z,10.80
2024-04-25T01:37:29.879Z,10.70
2024-04-25T01:42:49.184Z,9.40
2024-04-25T01:48:04.014Z,9.40
2024-04-25T01:53:55.945Z,9.20
2024-04-25T01:59:44.122Z,9.20
2024-04-25T02:04:56.228Z,9.90
2024-04-25T02:10:52.639Z,10.20
2024-04-25T02:16:52.751Z,9.90
2024-04-25T02:23:04.568Z,9.50
2024-04-25T02:28:46.365Z,9.40
2024-04-25T02:33:52.882Z,9.20
2024-04-25T02:39:18.584Z,10.30
2024-04-25T02:44:52.639Z,9.90
2024-04-25T02:50:34.421Z,11.10
2024-04-25T02:56:37.122Z,10.20
2024-04-25T03:02:28.824Z,9.70
2024-04-25T03:08:30.279Z,10.00
2024-04-25T03:14:34.394Z,10.70
2024-04-25T03:20:34.740Z,10.90
2024-04-25T03:26:29.659Z,10.70
2024-04-25T03:32:51.179Z,9.70
2024-04-25T03:38:16.961Z,9.80
2024-04-25T03:44:21.731Z,9.90
2024-04-25T03:50:21.193Z,10.70
2024-04-25T03:56:58.132Z,10.10
2024-04-25T04:09:21.947Z,9.30
2024-04-25T04:14:53.068Z,10.20
2024-04-25T04:20:17.300Z,8.40
2024-04-25T04:25:45.005Z,9.20
2024-04-25T04:31:31.584Z,8.80
2024-04-25T04:37:26.418Z,10.00
2024-04-25T04:43:05.829Z,9.90
2024-04-25T04:49:43.177Z,9.30
2024-04-25T04:55:15.321Z,8.20
2024-04-25T05:00:43.323Z,9.10
2024-04-25T05:06:26.470Z,10.70
2024-04-25T05:12:12.345Z,9.00
2024-04-25T05:18:13.465Z,9.50
2024-04-25T05:24:42.592Z,11.10
2024-04-25T05:37:07.881Z,9.80
2024-04-25T05:42:34.485Z,10.40
2024-04-25T05:47:49.559Z,22.80
2024-04-25T05:53:28.377Z,11.80
2024-04-25T05:59:38.777Z,25.50
2024-04-25T06:05:01.290Z,18.10
2024-04-25T06:10:04.390Z,11.50
2024-04-25T06:15:16.543Z,9.50
2024-04-25T06:20:39.273Z,8.90
2024-04-25T06:25:45.963Z,8.50
2024-04-25T06:30:48.312Z,8.30
2024-04-25T06:35:58.007Z,7.80
2024-04-25T06:41:05.458Z,7.70
2024-04-25T06:46:08.390Z,6.60
2024-04-25T06:51:12.510Z,5.80
2024-04-25T06:56:17.817Z,5.90
2024-04-25T07:01:32.863Z,6.20
2024-04-25T07:06:44.564Z,4.40
2024-04-25T07:11:46.992Z,4.30
2024-04-25T07:16:51.950Z,3.70
2024-04-25T07:21:55.587Z,4.60
2024-04-25T07:27:07.166Z,5.30
2024-04-25T07:32:11.740Z,5.30
2024-04-25T07:37:25.251Z,6.00
2024-04-25T07:42:31.395Z,5.40
2024-04-25T07:47:34.558Z,6.30
2024-04-25T07:52:49.676Z,5.30
2024-04-25T07:57:55.077Z,4.80
2024-04-25T08:03:04.363Z,4.40
2024-04-25T08:08:15.076Z,4.30
2024-04-25T08:13:28.854Z,4.40
2024-04-25T08:18:49.030Z,4.70
2024-04-25T08:23:51.798Z,4.70
2024-04-25T08:28:56.232Z,4.60
2024-04-25T08:34:04.864Z,5.20
2024-04-25T08:39:07.241Z,5.30
2024-04-25T08:44:10.247Z,8.20
2024-04-25T08:49:34.505Z,6.70
2024-04-25T08:54:47.388Z,6.00
2024-04-25T09:00:07.576Z,5.00
2024-04-25T09:05:21.050Z,5.20
2024-04-25T09:10:23.434Z,4.80
2024-04-25T09:15:30.370Z,4.10
2024-04-25T09:20:32.918Z,4.70
2024-04-25T09:25:54.733Z,4.40
2024-04-25T09:30:57.483Z,4.80
2024-04-25T09:41:06.069Z,4.00
2024-04-25T09:46:13.218Z,6.20
2024-04-25T09:51:29.463Z,5.30
2024-04-25T09:56:43.555Z,6.70
2024-04-25T10:01:52.769Z,4.70
2024-04-25T10:07:13.721Z,5.50
2024-04-25T10:12:26.966Z,5.00
2024-04-25T10:17:48.566Z,4.70
2024-04-25T10:23:01.592Z,4.80
2024-04-25T10:28:06.005Z,5.40
2024-04-25T10:33:08.394Z,4.10
2024-04-25T10:38:22.539Z,4.50
2024-04-25T10:43:29.433Z,3.80
2024-04-25T10:48:35.136Z,1.60
2024-04-25T10:54:01.432Z,1.20
2024-04-25T10:59:07.568Z,2.00
2024-04-25T11:04:10.037Z,2.70
2024-04-25T11:09:16.206Z,2.20
2024-04-25T11:14:18.873Z,1.90
2024-04-25T11:19:26.547Z,1.80
2024-04-25T11:24:41.703Z,2.70
2024-04-25T11:29:44.006Z,3.00
2024-04-25T11:34:55.244Z,4.00
2024-04-25T11:39:58.365Z,2.50
2024-04-25T11:45:15.853Z,2.70
2024-04-25T11:50:24.111Z,2.20
2024-04-25T11:55:26.994Z,2.10
2024-04-25T12:05:40.117Z,1.50
2024-04-25T12:10:53.680Z,1.60
2024-04-25T12:15:56.072Z,1.60
2024-04-25T12:21:05.022Z,1.90
2024-04-25T12:26:07.637Z,1.50
2024-04-25T12:31:11.472Z,2.00
2024-04-25T12:36:13.605Z,2.10
2024-04-25T12:41:15.914Z,2.40
2024-04-25T12:51:23.368Z,2.10
2024-04-25T12:56:26.782Z,2.40
2024-04-25T13:01:31.483Z,2.50
2024-04-25T13:06:37.057Z,2.50
2024-04-25T13:11:47.678Z,2.80
2024-04-25T13:16:59.207Z,2.50
2024-04-25T13:22:02.893Z,2.80
2024-04-25T13:27:46.074Z,4.50
2024-04-25T13:32:57.975Z,3.50
2024-04-25T13:38:03.274Z,2.90
2024-04-25T13:43:12.225Z,3.00
2024-04-25T13:48:14.748Z,3.00
2024-04-25T13:58:47.397Z,3.00
2024-04-25T14:03:57.366Z,7.10
2024-04-25T14:08:59.753Z,2.40
2024-04-25T14:14:16.369Z,2.20
2024-04-25T14:19:18.709Z,2.90
2024-04-25T14:29:47.304Z,2.80
2024-04-25T14:34:50.254Z,3.40
2024-04-25T14:45:05.205Z,4.10
2024-04-25T14:50:09.481Z,3.20
2024-04-25T14:55:16.115Z,3.10
2024-04-25T15:00:28.991Z,3.50
2024-04-25T15:06:14.737Z,3.20
2024-04-25T15:11:17.127Z,2.90
2024-04-25T15:16:20.182Z,3.30
2024-04-25T15:21:45.728Z,3.10
2024-04-25T15:26:48.915Z,3.40
2024-04-25T15:36:53.451Z,15.20
2024-04-25T15:42:19.134Z,8.60
2024-04-25T15:47:21.446Z,15.00
2024-04-25T15:57:34.895Z,11.90
2024-04-25T16:02:40.887Z,24.70
2024-04-25T16:07:45.961Z,5.60
2024-04-25T16:12:48.266Z,3.80
2024-04-25T16:17:59.502Z,4.30
2024-04-25T16:23:02.642Z,12.70
2024-04-25T16:34:35.403Z,4.80
2024-04-25T17:33:02.177Z,13.40
2024-04-25T18:03:06.603Z,8.50
2024-04-25T18:09:26.829Z,4.40
2024-04-25T18:14:33.195Z,9.90
2024-04-25T18:19:38.990Z,27.80
2024-04-25T18:24:41.384Z,9.70
2024-04-25T18:29:43.496Z,14.10
2024-04-25T18:34:45.625Z,28.80
2024-04-25T18:39:48.101Z,7.80
2024-04-25T18:44:51.986Z,3.50
2024-04-25T18:50:01.470Z,3.30
2024-04-25T18:55:07.247Z,3.80
2024-04-25T19:32:11.472Z,6.60
2024-04-25T19:37:15.785Z,6.70
2024-04-25T19:42:19.348Z,6.00
2024-04-25T19:47:26.528Z,6.70
2024-04-25T19:52:29.484Z,6.50
2024-04-25T19:57:32.066Z,6.60
2024-04-25T20:02:54.729Z,7.10
2024-04-25T20:07:57.195Z,5.90
2024-04-25T20:12:59.949Z,6.40
2024-04-25T20:18:24.317Z,6.90
2024-04-25T20:23:49.362Z,7.60
2024-04-25T20:28:54.479Z,6.90
2024-04-25T20:34:06.526Z,6.60
2024-04-25T20:39:08.933Z,7.10
2024-04-25T20:44:19.625Z,7.40
2024-04-25T20:49:27.871Z,6.90
2024-04-25T20:54:32.619Z,6.70
2024-04-25T20:59:36.922Z,7.50
2024-04-25T21:04:43.148Z,7.40
2024-04-25T21:09:45.503Z,6.20
2024-04-25T21:14:47.896Z,5.90
2024-04-25T21:19:50.514Z,5.40
2024-04-25T21:25:00.398Z,6.00
2024-04-25T21:30:03.711Z,6.30
2024-04-25T21:35:06.452Z,6.10
2024-04-25T21:45:17.444Z,6.50
2024-04-25T21:50:20.122Z,6.70
2024-04-25T21:55:22.468Z,7.30
2024-04-25T22:01:09.023Z,6.40
2024-04-25T22:07:25.418Z,6.40
2024-04-25T22:13:46.601Z,6.20
2024-04-25T22:19:25.136Z,5.30
2024-04-25T22:24:50.174Z,6.40
2024-04-25T22:30:25.371Z,6.60
2024-04-25T22:41:53.668Z,7.30
2024-04-25T22:47:25.707Z,6.50
2024-04-25T22:52:39.175Z,6.30
2024-04-25T22:58:05.187Z,6.10
2024-04-25T23:03:48.859Z,5.90
2024-04-25T23:09:19.507Z,6.00
2024-04-25T23:16:27.488Z,6.50
2024-04-25T23:27:45.687Z,6.60
2024-04-25T23:33:24.700Z,6.10
2024-04-25T23:39:28.265Z,5.20
2024-04-25T23:45:26.400Z,5.70
2024-04-25T23:51:20.094Z,5.30
2024-04-25T23:57:19.899Z,5.10
